Time;durP1;ratioP1;P1;durP2;ratioP2;P2;SDS_P1;SDS_P2;PMS_P1;PMS_P2;Temp;Humidity;BMP_temperature;BMP_pressure;BME280_temperature;BME280_humidity;BME280_pressure;Samples;Min_cycle;Max_cycle;Signal;HPM_P1;HPM_P2
2021/07/04 00:00:26;;;;;;;16.83;12.32;;;19.20;99.90;;;;;;5048400;28;20079;-70
2021/07/04 00:02:56;;;;;;;15.98;12.27;;;19.20;99.90;;;;;;5032251;28;20042;-70
2021/07/04 00:05:27;;;;;;;16.05;11.88;;;19.20;99.90;;;;;;5025585;28;20111;-70
2021/07/04 00:07:55;;;;;;;16.15;12.30;;;19.20;99.90;;;;;;5041543;28;20136;-70
2021/07/04 00:10:28;;;;;;;17.27;12.15;;;19.20;99.90;;;;;;5044782;28;20045;-70
2021/07/04 00:12:57;;;;;;;16.33;11.65;;;19.20;99.90;;;;;;5047259;28;20061;-70
2021/07/04 00:15:27;;;;;;;16.10;11.02;;;19.20;99.90;;;;;;5042852;28;20118;-70
2021/07/04 00:17:55;;;;;;;14.27;10.20;;;19.10;99.90;;;;;;5045485;28;20053;-70
2021/07/04 00:20:23;;;;;;;14.10;11.05;;;19.10;99.90;;;;;;5043497;28;20128;-70
2021/07/04 00:22:57;;;;;;;12.65;10.40;;;19.10;99.90;;;;;;5004406;28;20095;-70
2021/07/04 00:25:25;;;;;;;13.27;10.15;;;19.10;99.90;;;;;;5031928;28;20381;-70
2021/07/04 00:27:55;;;;;;;15.10;11.38;;;19.10;99.90;;;;;;5017064;28;20061;-70
2021/07/04 00:30:23;;;;;;;12.90;10.05;;;19.10;99.90;;;;;;5044300;28;20060;-70
2021/07/04 00:32:51;;;;;;;12.38;10.05;;;19.10;99.90;;;;;;5044062;28;20512;-70
2021/07/04 00:35:23;;;;;;;13.68;10.35;;;19.10;99.90;;;;;;5022533;28;20076;-70
2021/07/04 00:37:52;;;;;;;12.07;9.68;;;19.10;99.90;;;;;;5035148;28;20037;-70
2021/07/04 00:40:20;;;;;;;12.90;9.80;;;19.10;99.90;;;;;;5038438;28;20045;-70
2021/07/04 00:42:48;;;;;;;16.55;9.57;;;19.10;99.90;;;;;;5039635;28;20045;-70
2021/07/04 00:45:21;;;;;;;14.80;10.65;;;19.10;99.90;;;;;;5037048;28;20045;-70
2021/07/04 00:47:49;;;;;;;15.18;10.60;;;19.10;99.90;;;;;;5022335;28;20042;-70
2021/07/04 00:50:23;;;;;;;14.88;10.80;;;19.10;99.90;;;;;;5029444;28;20054;-70
2021/07/04 00:52:53;;;;;;;12.55;9.63;;;19.10;99.90;;;;;;5032510;28;20041;-70
2021/07/04 00:55:24;;;;;;;13.57;10.15;;;19.10;99.90;;;;;;5034557;28;20091;-70
2021/07/04 00:57:58;;;;;;;12.18;9.90;;;19.10;99.90;;;;;;5029831;28;20053;-70
2021/07/04 01:00:30;;;;;;;14.98;9.18;;;19.10;99.90;;;;;;5018712;28;20037;-70
2021/07/04 01:02:58;;;;;;;14.02;9.68;;;19.00;99.90;;;;;;5044337;28;20035;-70
2021/07/04 01:05:29;;;;;;;16.27;9.43;;;19.00;99.90;;;;;;5030400;28;20111;-70
2021/07/04 01:07:59;;;;;;;12.52;9.88;;;19.10;99.90;;;;;;5033832;28;20518;-70
2021/07/04 01:10:30;;;;;;;15.82;9.90;;;19.00;99.90;;;;;;5027299;28;20107;-70
2021/07/04 01:13:08;;;;;;;11.30;9.00;;;19.00;99.90;;;;;;5027245;28;20052;-70
2021/07/04 01:15:39;;;;;;;11.63;8.67;;;19.10;99.90;;;;;;5046220;28;20550;-70
2021/07/04 01:18:10;;;;;;;11.93;8.90;;;19.10;99.90;;;;;;5046159;28;20139;-70
2021/07/04 01:20:44;;;;;;;12.35;8.52;;;19.00;99.90;;;;;;5045472;28;20041;-70
2021/07/04 01:23:15;;;;;;;10.02;8.07;;;19.00;99.90;;;;;;5043807;28;20127;-70
2021/07/04 01:25:50;;;;;;;10.25;8.32;;;19.00;99.90;;;;;;5036961;28;20047;-70
2021/07/04 01:28:22;;;;;;;11.88;7.78;;;19.10;99.90;;;;;;5033591;28;20029;-70
2021/07/04 01:30:57;;;;;;;10.07;6.75;;;19.00;99.90;;;;;;5036404;28;20044;-70
2021/07/04 01:33:28;;;;;;;11.50;8.23;;;19.10;99.90;;;;;;5033944;28;20047;-70
2021/07/04 01:35:56;;;;;;;12.73;8.10;;;19.00;99.90;;;;;;5032721;28;20041;-70
2021/07/04 01:38:28;;;;;;;11.32;8.20;;;18.90;99.90;;;;;;5019088;28;20389;-70
2021/07/04 01:40:58;;;;;;;10.45;7.93;;;18.90;99.90;;;;;;5017720;28;20115;-70
2021/07/04 01:43:25;;;;;;;12.30;7.85;;;18.90;99.90;;;;;;5050028;28;20037;-70
2021/07/04 01:45:53;;;;;;;11.90;7.80;;;18.90;99.90;;;;;;5049133;28;20040;-70
2021/07/04 01:48:20;;;;;;;10.23;6.95;;;18.90;99.90;;;;;;5027399;28;20042;-70
2021/07/04 01:50:50;;;;;;;9.95;7.80;;;18.90;99.90;;;;;;5048862;28;20052;-70
2021/07/04 01:53:25;;;;;;;11.32;7.40;;;18.90;99.90;;;;;;5019671;28;20063;-70
2021/07/04 01:56:00;;;;;;;9.73;7.32;;;18.90;99.90;;;;;;5050758;28;20450;-70
2021/07/04 01:58:28;;;;;;;10.85;7.55;;;18.90;99.90;;;;;;5046390;28;20033;-70
2021/07/04 02:01:01;;;;;;;9.90;6.82;;;18.90;99.90;;;;;;5049029;28;20041;-69
2021/07/04 02:03:28;;;;;;;9.75;7.30;;;18.90;99.90;;;;;;5046951;28;20033;-70
2021/07/04 02:06:00;;;;;;;10.48;7.00;;;18.90;99.90;;;;;;5028850;28;20053;-70
2021/07/04 02:08:28;;;;;;;11.50;7.70;;;18.90;99.90;;;;;;5048231;28;20515;-70
2021/07/04 02:11:04;;;;;;;10.30;7.68;;;18.90;99.90;;;;;;5050496;28;20045;-70
2021/07/04 02:13:33;;;;;;;9.57;7.13;;;19.00;99.90;;;;;;5027333;28;20053;-71
2021/07/04 02:16:04;;;;;;;12.20;7.85;;;19.00;99.90;;;;;;5031922;28;20049;-71
2021/07/04 02:18:41;;;;;;;11.07;7.85;;;19.00;99.90;;;;;;5047113;28;20144;-71
2021/07/04 02:21:29;;;;;;;9.57;6.85;;;19.00;99.90;;;;;;5031361;28;20541;-71
2021/07/04 02:24:09;;;;;;;9.90;7.47;;;19.00;99.90;;;;;;5049742;28;20048;-71
2021/07/04 02:27:04;;;;;;;8.52;6.55;;;19.00;99.90;;;;;;5041342;28;20113;-70
2021/07/04 02:29:50;;;;;;;11.48;6.97;;;19.10;99.90;;;;;;5052133;28;20506;-70
2021/07/04 02:32:17;;;;;;;8.93;7.03;;;19.10;99.90;;;;;;5049742;28;20131;-71
2021/07/04 02:34:46;;;;;;;10.40;7.10;;;19.10;99.90;;;;;;5030782;28;20080;-71
2021/07/04 02:37:14;;;;;;;9.45;7.13;;;19.10;99.90;;;;;;5041812;28;20045;-71
2021/07/04 02:39:47;;;;;;;10.70;7.10;;;19.10;99.90;;;;;;5034190;28;20091;-69
2021/07/04 02:42:15;;;;;;;11.10;7.07;;;19.10;99.90;;;;;;5046606;28;20047;-69
2021/07/04 02:44:42;;;;;;;10.23;7.10;;;19.10;99.90;;;;;;5019980;28;20041;-69
2021/07/04 02:47:13;;;;;;;8.75;6.35;;;19.00;99.90;;;;;;5020426;28;20415;-70
2021/07/04 02:49:43;;;;;;;9.63;7.18;;;19.00;99.90;;;;;;5039165;28;20041;-69
2021/07/04 02:52:12;;;;;;;9.63;6.88;;;19.00;99.90;;;;;;5033077;28;20057;-69
2021/07/04 02:54:39;;;;;;;8.93;6.47;;;19.00;99.90;;;;;;5032923;28;20041;-69
2021/07/04 02:57:19;;;;;;;8.30;5.85;;;19.00;99.90;;;;;;5047251;28;20111;-70
2021/07/04 02:59:49;;;;;;;9.88;7.10;;;19.00;99.90;;;;;;5048443;28;20044;-70
2021/07/04 03:02:17;;;;;;;8.93;6.38;;;19.00;99.90;;;;;;5042579;28;20037;-70
2021/07/04 03:04:52;;;;;;;9.18;6.63;;;19.00;99.90;;;;;;5049686;28;20047;-70
2021/07/04 03:07:21;;;;;;;9.02;6.50;;;19.00;99.90;;;;;;5025963;28;20063;-70
2021/07/04 03:09:48;;;;;;;10.10;7.03;;;19.00;99.90;;;;;;5043942;28;20049;-70
2021/07/04 03:12:20;;;;;;;9.80;6.68;;;19.00;99.90;;;;;;5028813;28;20045;-70
2021/07/04 03:14:48;;;;;;;9.25;6.75;;;19.00;99.90;;;;;;5032178;28;20041;-70
2021/07/04 03:17:16;;;;;;;8.68;6.30;;;18.90;99.90;;;;;;5043823;28;20508;-70
2021/07/04 03:19:44;;;;;;;8.70;6.53;;;18.90;99.90;;;;;;5039570;28;20468;-70
2021/07/04 03:22:16;;;;;;;8.55;6.18;;;18.90;99.90;;;;;;5048781;28;20450;-70
2021/07/04 03:24:44;;;;;;;10.45;6.03;;;18.90;99.90;;;;;;5021262;28;20319;-70
2021/07/04 03:27:12;;;;;;;8.13;6.30;;;18.90;99.90;;;;;;5037913;28;20091;-70
2021/07/04 03:29:44;;;;;;;10.70;7.20;;;18.80;99.90;;;;;;5047817;28;20118;-70
2021/07/04 03:32:13;;;;;;;12.05;7.38;;;18.90;99.90;;;;;;5047832;28;20128;-70
2021/07/04 03:34:43;;;;;;;10.23;7.15;;;18.80;99.90;;;;;;5023066;28;20044;-70
2021/07/04 03:37:11;;;;;;;11.10;6.43;;;18.70;99.90;;;;;;5049293;28;20044;-70
2021/07/04 03:39:39;;;;;;;10.65;6.93;;;18.80;99.90;;;;;;5016645;28;20041;-70
2021/07/04 03:42:08;;;;;;;10.35;6.93;;;18.70;99.90;;;;;;5012699;28;20053;-70
2021/07/04 03:44:39;;;;;;;8.88;6.63;;;18.80;99.90;;;;;;5030363;28;20045;-70
2021/07/04 03:47:07;;;;;;;10.77;7.28;;;18.70;99.90;;;;;;5020134;28;20081;-70
2021/07/04 03:49:35;;;;;;;8.65;7.03;;;18.70;99.90;;;;;;5013534;28;20400;-70
2021/07/04 03:52:06;;;;;;;9.25;6.70;;;18.70;99.90;;;;;;5035720;28;20050;-70
2021/07/04 03:54:35;;;;;;;8.23;6.60;;;18.70;99.90;;;;;;5041713;28;20402;-70
2021/07/04 03:57:22;;;;;;;10.57;6.95;;;18.70;99.90;;;;;;5037907;28;20090;-70
2021/07/04 04:00:10;;;;;;;;;;;18.70;99.90;;;;;;5026495;28;20041;-70
2021/07/04 04:02:44;;;;;;;10.57;7.13;;;18.70;99.90;;;;;;5043915;28;20344;-70
2021/07/04 04:05:18;;;;;;;8.13;6.13;;;18.70;99.90;;;;;;5034106;28;20040;-70
2021/07/04 04:07:50;;;;;;;9.27;7.10;;;18.80;99.90;;;;;;5027199;28;20075;-70
2021/07/04 04:10:18;;;;;;;10.50;7.57;;;18.80;99.90;;;;;;5046419;28;20068;-70
2021/07/04 04:12:48;;;;;;;10.20;6.75;;;18.80;99.90;;;;;;5030347;28;20044;-70
2021/07/04 04:15:17;;;;;;;8.20;6.07;;;18.80;99.90;;;;;;5030513;28;20057;-70
2021/07/04 04:17:47;;;;;;;7.97;6.05;;;18.80;99.90;;;;;;5048382;28;20060;-70
2021/07/04 04:20:21;;;;;;;10.30;6.55;;;18.80;99.90;;;;;;5031324;28;20100;-70
2021/07/04 04:22:49;;;;;;;8.38;6.63;;;18.90;99.90;;;;;;5044028;28;20466;-70
2021/07/04 04:25:18;;;;;;;9.82;6.70;;;18.80;99.90;;;;;;5031284;28;20045;-70
2021/07/04 04:27:48;;;;;;;9.77;6.72;;;18.90;99.90;;;;;;5047980;28;20043;-70
2021/07/04 04:30:19;;;;;;;8.93;6.80;;;18.90;99.90;;;;;;5047885;28;20040;-70
2021/07/04 04:32:49;;;;;;;10.23;7.45;;;19.00;99.90;;;;;;5036422;28;20416;-70
2021/07/04 04:35:16;;;;;;;9.63;6.72;;;19.00;99.90;;;;;;5052924;28;20594;-70
2021/07/04 04:37:44;;;;;;;9.02;6.35;;;19.00;99.90;;;;;;5037754;28;20045;-69
2021/07/04 04:40:13;;;;;;;8.95;6.25;;;19.10;99.90;;;;;;5035327;28;20044;-69
2021/07/04 04:42:40;;;;;;;8.07;6.30;;;19.20;99.90;;;;;;5040398;28;20077;-69
2021/07/04 04:45:08;;;;;;;8.52;6.28;;;19.20;99.90;;;;;;5053001;28;20128;-69
2021/07/04 04:47:36;;;;;;;11.43;6.68;;;19.20;99.90;;;;;;5048481;28;20038;-69
2021/07/04 04:50:04;;;;;;;9.20;7.03;;;19.30;99.90;;;;;;5050755;28;20045;-69
2021/07/04 04:52:32;;;;;;;10.48;7.00;;;19.30;99.90;;;;;;5042730;28;20041;-69
2021/07/04 04:54:59;;;;;;;9.55;7.28;;;19.30;99.90;;;;;;5042529;28;20063;-69
2021/07/04 04:57:27;;;;;;;10.32;7.05;;;19.30;99.90;;;;;;5049800;28;20644;-70
2021/07/04 04:59:54;;;;;;;9.13;7.10;;;19.30;99.90;;;;;;5047675;28;20069;-70
2021/07/04 05:02:22;;;;;;;12.20;8.10;;;19.30;99.90;;;;;;5053816;28;20029;-69
2021/07/04 05:04:49;;;;;;;9.95;7.43;;;19.30;99.90;;;;;;5053745;28;20084;-70
2021/07/04 05:07:16;;;;;;;9.05;7.03;;;19.30;99.90;;;;;;5051360;28;20041;-70
2021/07/04 05:09:44;;;;;;;9.75;7.10;;;19.30;99.90;;;;;;5053404;28;20060;-70
2021/07/04 05:12:11;;;;;;;10.90;7.60;;;19.30;99.90;;;;;;5047900;28;20132;-70
2021/07/04 05:14:39;;;;;;;10.38;8.35;;;19.30;99.90;;;;;;5043360;28;20069;-69
2021/07/04 05:17:06;;;;;;;9.68;7.18;;;19.30;99.90;;;;;;5051122;28;20540;-69
2021/07/04 05:19:34;;;;;;;11.57;8.13;;;19.30;99.90;;;;;;5045224;28;20049;-69
2021/07/04 05:22:01;;;;;;;12.30;7.45;;;19.30;99.90;;;;;;5025363;28;20056;-70
2021/07/04 05:24:30;;;;;;;11.20;7.65;;;19.30;99.90;;;;;;5043569;28;20040;-70
2021/07/04 05:26:57;;;;;;;10.65;7.38;;;19.30;99.90;;;;;;5045011;28;20519;-70
2021/07/04 05:29:25;;;;;;;9.00;7.70;;;19.30;99.90;;;;;;5050150;28;20431;-70
2021/07/04 05:31:52;;;;;;;9.48;7.15;;;19.40;99.90;;;;;;5051300;28;20403;-70
2021/07/04 05:34:19;;;;;;;11.55;7.32;;;19.40;99.90;;;;;;5044808;28;20045;-70
2021/07/04 05:36:48;;;;;;;11.20;7.40;;;19.40;99.90;;;;;;5034762;28;20103;-70
2021/07/04 05:39:16;;;;;;;11.10;7.97;;;19.50;99.90;;;;;;5041208;28;20185;-70
2021/07/04 05:41:43;;;;;;;10.82;7.28;;;19.40;99.90;;;;;;5050037;28;20033;-70
2021/07/04 05:44:11;;;;;;;9.73;7.18;;;19.40;99.90;;;;;;5037009;28;20087;-70
2021/07/04 05:46:39;;;;;;;10.77;7.50;;;19.50;99.90;;;;;;5048296;28;20484;-69
2021/07/04 05:49:07;;;;;;;10.20;8.15;;;19.60;99.90;;;;;;5049085;28;20456;-69
2021/07/04 05:51:34;;;;;;;10.82;8.10;;;19.70;99.90;;;;;;5029496;28;20057;-70
2021/07/04 05:54:03;;;;;;;10.25;7.47;;;19.70;99.90;;;;;;5036778;28;20053;-70
2021/07/04 05:56:31;;;;;;;8.98;6.95;;;19.80;99.90;;;;;;5046921;28;20049;-71
2021/07/04 05:58:59;;;;;;;11.18;7.45;;;19.90;99.90;;;;;;5049467;28;20474;-71
2021/07/04 06:01:26;;;;;;;11.68;7.65;;;19.90;99.90;;;;;;5049493;28;20046;-71
2021/07/04 06:03:53;;;;;;;10.25;7.50;;;20.00;99.90;;;;;;5039862;28;20109;-71
2021/07/04 06:06:21;;;;;;;10.23;8.27;;;20.10;99.90;;;;;;5050283;28;20107;-70
2021/07/04 06:08:48;;;;;;;11.32;8.38;;;20.10;99.90;;;;;;5052730;28;20098;-70
2021/07/04 06:11:15;;;;;;;9.90;7.93;;;20.20;99.90;;;;;;5039250;28;20116;-69
2021/07/04 06:13:43;;;;;;;10.43;8.18;;;20.10;99.90;;;;;;5047581;28;20049;-69
2021/07/04 06:16:10;;;;;;;12.30;7.57;;;20.10;99.90;;;;;;5050074;28;20041;-69
2021/07/04 06:18:38;;;;;;;9.80;7.53;;;20.10;99.90;;;;;;5047613;28;20057;-70
2021/07/04 06:21:05;;;;;;;12.15;9.32;;;20.20;99.90;;;;;;5014443;28;20073;-70
2021/07/04 06:23:33;;;;;;;9.73;7.70;;;20.20;99.90;;;;;;5046554;28;20112;-70
2021/07/04 06:26:00;;;;;;;12.20;8.18;;;20.20;99.90;;;;;;5049550;28;20256;-70
2021/07/04 06:28:28;;;;;;;12.80;9.45;;;20.30;99.90;;;;;;5038844;28;20048;-69
2021/07/04 06:30:55;;;;;;;10.60;8.02;;;20.40;99.90;;;;;;5045014;28;20050;-69
2021/07/04 06:33:22;;;;;;;10.30;8.30;;;20.40;99.90;;;;;;5019833;28;20089;-69
2021/07/04 06:35:50;;;;;;;9.43;7.38;;;20.50;99.90;;;;;;5043856;28;20140;-69
2021/07/04 06:38:17;;;;;;;12.77;8.23;;;20.60;99.90;;;;;;5033361;28;20078;-70
2021/07/04 06:40:44;;;;;;;13.05;9.13;;;20.70;99.90;;;;;;5034124;28;20341;-69
2021/07/04 06:43:11;;;;;;;13.77;9.43;;;20.60;99.90;;;;;;5025922;28;20049;-69
2021/07/04 06:45:41;;;;;;;11.63;8.30;;;20.80;99.90;;;;;;5035539;28;20041;-69
2021/07/04 06:48:08;;;;;;;10.18;8.00;;;20.70;99.90;;;;;;5032022;28;20086;-69
2021/07/04 06:50:36;;;;;;;8.85;6.85;;;20.90;99.90;;;;;;5034392;28;20094;-69
2021/07/04 06:53:04;;;;;;;11.60;8.73;;;20.90;99.90;;;;;;5049450;28;20045;-70
2021/07/04 06:55:32;;;;;;;9.43;6.85;;;21.00;99.90;;;;;;5027987;28;20118;-69
2021/07/04 06:57:59;;;;;;;9.23;7.35;;;20.80;99.90;;;;;;5044979;28;20052;-69
2021/07/04 07:00:27;;;;;;;8.23;6.50;;;20.80;99.90;;;;;;5034934;28;20041;-69
2021/07/04 07:02:54;;;;;;;8.85;6.43;;;20.80;99.90;;;;;;5022247;28;20041;-69
2021/07/04 07:05:22;;;;;;;10.15;7.32;;;21.00;99.90;;;;;;5046522;28;20060;-69
2021/07/04 07:07:49;;;;;;;9.18;6.80;;;20.90;99.90;;;;;;5049652;28;20041;-69
2021/07/04 07:10:17;;;;;;;9.23;7.07;;;20.90;99.90;;;;;;5030403;28;20126;-69
2021/07/04 07:12:47;;;;;;;9.77;6.50;;;20.80;99.90;;;;;;5031108;28;20038;-71
2021/07/04 07:15:18;;;;;;;9.50;6.68;;;20.90;99.90;;;;;;5020593;28;20412;-70
2021/07/04 07:17:46;;;;;;;11.18;7.35;;;21.00;99.90;;;;;;5044875;28;20094;-69
2021/07/04 07:20:15;;;;;;;10.95;6.85;;;21.10;99.90;;;;;;5030005;28;20043;-69
2021/07/04 07:22:44;;;;;;;10.65;7.32;;;21.40;99.90;;;;;;5030713;28;20030;-69
2021/07/04 07:25:17;;;;;;;10.40;7.20;;;21.70;99.90;;;;;;5030988;28;20041;-69
2021/07/04 07:27:45;;;;;;;10.00;7.60;;;21.70;99.90;;;;;;5042007;28;20120;-69
2021/07/04 07:30:13;;;;;;;9.63;7.07;;;21.80;99.90;;;;;;5034848;28;20119;-69
2021/07/04 07:32:41;;;;;;;9.48;6.55;;;21.90;99.90;;;;;;5037457;28;20037;-69
2021/07/04 07:35:10;;;;;;;10.43;6.53;;;22.00;99.90;;;;;;5040307;28;20044;-70
2021/07/04 07:37:40;;;;;;;9.13;7.22;;;22.10;99.90;;;;;;5030104;28;20128;-69
2021/07/04 07:40:09;;;;;;;9.63;7.50;;;22.30;99.90;;;;;;5035578;28;20133;-69
2021/07/04 07:42:47;;;;;;;8.98;7.10;;;22.40;99.90;;;;;;5013458;28;20496;-69
2021/07/04 07:45:15;;;;;;;8.75;6.35;;;22.60;99.90;;;;;;5047281;28;20069;-69
2021/07/04 07:47:44;;;;;;;10.13;7.20;;;22.60;99.90;;;;;;5037039;28;20048;-69
2021/07/04 07:50:13;;;;;;;15.82;11.15;;;22.80;99.90;;;;;;5038669;28;20091;-69
2021/07/04 07:52:40;;;;;;;14.52;10.07;;;23.00;99.90;;;;;;5046671;28;20049;-69
2021/07/04 07:55:09;;;;;;;9.88;7.60;;;23.20;99.90;;;;;;5034747;28;20041;-69
2021/07/04 07:57:38;;;;;;;10.10;7.85;;;23.50;99.90;;;;;;5049238;28;20068;-69
2021/07/04 08:00:09;;;;;;;9.57;6.88;;;23.60;99.90;;;;;;5042208;28;20039;-69
2021/07/04 08:02:41;;;;;;;8.18;6.40;;;23.80;99.90;;;;;;5040466;28;20116;-70
2021/07/04 08:05:13;;;;;;;10.50;7.15;;;24.10;99.90;;;;;;5040264;28;20423;-69
2021/07/04 08:07:42;;;;;;;10.07;6.72;;;24.40;99.90;;;;;;5045718;28;20042;-69
2021/07/04 08:10:13;;;;;;;10.55;7.88;;;24.50;99.90;;;;;;5039138;28;20095;-69
2021/07/04 08:12:42;;;;;;;9.18;6.78;;;24.40;99.90;;;;;;5030450;28;20042;-69
2021/07/04 08:15:11;;;;;;;9.27;7.38;;;24.50;99.90;;;;;;5031806;28;20042;-69
2021/07/04 08:17:38;;;;;;;11.80;8.50;;;24.50;99.90;;;;;;5031468;28;20107;-70
2021/07/04 08:20:08;;;;;;;8.73;7.40;;;24.40;99.90;;;;;;5015678;28;20045;-69
2021/07/04 08:22:36;;;;;;;10.25;7.32;;;24.40;99.90;;;;;;5034258;28;20033;-70
2021/07/04 08:25:06;;;;;;;9.02;6.57;;;24.60;99.90;;;;;;5042009;28;20041;-70
2021/07/04 08:27:33;;;;;;;8.57;6.35;;;24.70;99.90;;;;;;5049900;28;20069;-69
2021/07/04 08:30:02;;;;;;;8.73;6.28;;;24.70;99.90;;;;;;5032692;28;20121;-69
2021/07/04 08:32:30;;;;;;;8.70;6.55;;;24.70;99.90;;;;;;5046777;28;20574;-69
2021/07/04 08:34:57;;;;;;;8.55;6.18;;;24.50;99.90;;;;;;5037784;28;20042;-69
2021/07/04 08:37:31;;;;;;;8.80;6.60;;;24.40;99.90;;;;;;5037737;28;20049;-69
2021/07/04 08:39:59;;;;;;;11.05;5.68;;;24.40;99.90;;;;;;5030431;28;20533;-69
2021/07/04 08:42:27;;;;;;;7.32;5.90;;;24.60;99.90;;;;;;5030747;28;20061;-69
2021/07/04 08:44:59;;;;;;;8.38;5.97;;;24.80;99.90;;;;;;5044857;28;20112;-69
2021/07/04 08:47:27;;;;;;;6.60;5.07;;;25.00;99.90;;;;;;5041041;28;20061;-69
2021/07/04 08:49:55;;;;;;;11.98;8.20;;;24.70;99.90;;;;;;5029101;28;20106;-70
2021/07/04 08:52:23;;;;;;;6.93;5.10;;;24.70;99.90;;;;;;5032897;28;20045;-70
2021/07/04 08:54:50;;;;;;;7.43;4.60;;;24.90;99.90;;;;;;5029741;28;20083;-70
2021/07/04 08:57:18;;;;;;;6.93;4.82;;;25.10;99.90;;;;;;5045984;28;20048;-69
2021/07/04 08:59:47;;;;;;;6.80;4.80;;;25.50;99.90;;;;;;5044289;28;20460;-68
2021/07/04 09:02:28;;;;;;;7.10;5.50;;;25.70;99.90;;;;;;5039848;28;20069;-68
2021/07/04 09:05:01;;;;;;;7.30;5.28;;;26.20;99.90;;;;;;5041913;28;20117;-68
2021/07/04 09:07:30;;;;;;;7.93;5.10;;;26.60;99.90;;;;;;5043200;28;20041;-69
2021/07/04 09:10:00;;;;;;;8.30;5.68;;;26.90;99.90;;;;;;5038760;28;20061;-68
2021/07/04 09:12:49;;;;;;;8.35;5.75;;;27.30;99.90;;;;;;5048625;28;20530;-69
2021/07/04 09:15:23;;;;;;;8.73;5.93;;;27.40;99.90;;;;;;5042495;28;20045;-69
2021/07/04 09:17:53;;;;;;;10.85;7.95;;;27.40;99.90;;;;;;5027295;28;20084;-70
2021/07/04 09:20:30;;;;;;;7.72;6.07;;;27.80;99.90;;;;;;5041214;28;20121;-69
2021/07/04 09:22:59;;;;;;;9.93;6.43;;;27.90;99.90;;;;;;5034060;28;20439;-69
2021/07/04 09:25:29;;;;;;;7.13;5.55;;;28.30;99.90;;;;;;5032330;28;20119;-69
2021/07/04 09:28:04;;;;;;;7.25;5.40;;;27.90;99.90;;;;;;5035085;28;20037;-69
2021/07/04 09:30:36;;;;;;;6.70;4.88;;;28.00;99.90;;;;;;5038641;28;20033;-68
2021/07/04 09:33:14;;;;;;;;;;;27.80;99.90;;;;;;5035457;28;20053;-69
2021/07/04 09:36:03;;;;;;;7.63;5.47;;;27.30;99.90;;;;;;5037572;28;19996;-68
2021/07/04 09:38:32;;;;;;;10.25;7.18;;;26.90;99.90;;;;;;5031546;28;20454;-68
2021/07/04 09:41:01;;;;;;;9.75;6.95;;;26.80;99.90;;;;;;5033515;28;20595;-68
2021/07/04 09:43:30;;;;;;;7.40;5.75;;;26.50;99.90;;;;;;5032508;28;20508;-68
2021/07/04 09:46:05;;;;;;;8.25;5.32;;;26.60;99.90;;;;;;5039182;28;20079;-68
2021/07/04 09:48:32;;;;;;;6.47;4.35;;;26.90;99.90;;;;;;5045998;28;20042;-68
2021/07/04 09:51:00;;;;;;;6.70;5.45;;;27.10;99.90;;;;;;5043429;28;20128;-68
2021/07/04 09:53:34;;;;;;;9.25;5.32;;;27.00;99.90;;;;;;5042489;28;20045;-68
2021/07/04 09:56:15;;;;;;;7.65;5.63;;;27.30;99.90;;;;;;5039246;28;20648;-68
2021/07/04 09:58:45;;;;;;;7.00;5.43;;;27.80;99.90;;;;;;5037864;28;20116;-68
2021/07/04 10:01:30;;;;;;;9.32;5.25;;;28.20;99.90;;;;;;5035499;28;20500;-68
2021/07/04 10:03:57;;;;;;;7.57;4.80;;;28.80;99.90;;;;;;5048160;28;20044;-68
2021/07/04 10:06:25;;;;;;;6.28;4.85;;;29.30;99.90;;;;;;5050389;28;20037;-68
2021/07/04 10:08:55;;;;;;;7.13;5.28;;;29.40;99.90;;;;;;5035424;28;20044;-68
2021/07/04 10:11:22;;;;;;;8.30;5.70;;;29.50;99.90;;;;;;5037204;28;20129;-68
2021/07/04 10:13:50;;;;;;;7.68;5.80;;;29.70;99.90;;;;;;5038074;28;20049;-68
2021/07/04 10:16:18;;;;;;;6.82;5.50;;;29.70;99.90;;;;;;5039231;28;20045;-68
2021/07/04 10:18:48;;;;;;;10.07;5.22;;;29.50;99.90;;;;;;5036788;28;20050;-68
2021/07/04 10:21:18;;;;;;;9.43;7.97;;;29.40;99.90;;;;;;5033924;28;20124;-68
2021/07/04 10:23:47;;;;;;;7.38;5.38;;;29.20;99.90;;;;;;5046779;28;20311;-68
2021/07/04 10:26:16;;;;;;;5.88;5.03;;;29.20;99.90;;;;;;5043386;28;20107;-68
2021/07/04 10:28:45;;;;;;;9.00;5.05;;;29.50;99.90;;;;;;5035063;28;20042;-68
2021/07/04 10:31:19;;;;;;;7.05;4.45;;;29.70;99.90;;;;;;5040804;28;20041;-68
2021/07/04 10:34:02;;;;;;;5.32;4.25;;;29.70;99.90;;;;;;5037588;28;20232;-68
2021/07/04 10:36:32;;;;;;;6.32;4.43;;;29.80;99.90;;;;;;5031323;28;20029;-68
2021/07/04 10:39:09;;;;;;;5.93;4.45;;;30.00;99.90;;;;;;5031535;28;20057;-68
2021/07/04 10:41:37;;;;;;;8.70;4.30;;;30.30;99.90;;;;;;5029967;28;20121;-68
2021/07/04 10:44:04;;;;;;;5.22;4.20;;;30.40;99.90;;;;;;5038662;28;20041;-68
2021/07/04 10:46:44;;;;;;;6.15;4.13;;;30.70;99.90;;;;;;5017583;28;20068;-68
2021/07/04 10:49:23;;;;;;;6.22;4.45;;;30.70;99.90;;;;;;5048733;28;20045;-68
2021/07/04 10:52:07;;;;;;;6.18;4.40;;;30.40;99.90;;;;;;5045345;28;20047;-68
2021/07/04 10:54:45;;;;;;;7.03;4.85;;;30.80;99.90;;;;;;5041694;28;20044;-68
2021/07/04 10:57:15;;;;;;;4.55;3.60;;;31.20;99.90;;;;;;5038347;28;20080;-68
2021/07/04 11:00:00;;;;;;;6.93;4.13;;;31.00;99.90;;;;;;5048561;28;20051;-68
2021/07/04 11:02:54;;;;;;;6.13;3.97;;;30.20;99.90;;;;;;5039775;28;20515;-68
2021/07/04 11:05:40;;;;;;;9.10;4.75;;;30.00;99.90;;;;;;5050349;28;20087;-68
2021/07/04 11:08:09;;;;;;;5.93;4.60;;;29.50;99.90;;;;;;5037770;28;20060;-68
2021/07/04 11:10:38;;;;;;;6.70;5.32;;;29.20;99.90;;;;;;5049792;28;20043;-68
2021/07/04 11:13:12;;;;;;;9.07;5.35;;;29.00;99.90;;;;;;5048043;28;20049;-68
2021/07/04 11:15:41;;;;;;;5.93;4.07;;;29.00;99.90;;;;;;5050333;28;20040;-68
2021/07/04 11:18:18;;;;;;;5.70;3.95;;;28.60;99.90;;;;;;5048111;28;20134;-68
2021/07/04 11:20:49;;;;;;;6.60;4.78;;;28.20;99.90;;;;;;5041694;28;20037;-68
2021/07/04 11:23:20;;;;;;;7.85;5.65;;;27.90;99.90;;;;;;5046211;28;20049;-68
2021/07/04 11:26:11;;;;;;;6.20;4.80;;;27.50;99.90;;;;;;5046602;28;20064;-68
2021/07/04 11:28:41;;;;;;;6.13;4.10;;;27.40;99.90;;;;;;5044850;28;20051;-68
2021/07/04 11:31:17;;;;;;;7.13;4.25;;;27.20;99.90;;;;;;5047611;28;20105;-68
2021/07/04 11:33:49;;;;;;;7.80;4.53;;;26.90;99.90;;;;;;5046666;28;20049;-68
2021/07/04 11:36:27;;;;;;;6.60;4.65;;;26.80;99.90;;;;;;5045284;28;20136;-68
2021/07/04 11:38:54;;;;;;;7.70;4.25;;;26.90;99.90;;;;;;5029551;28;20054;-67
2021/07/04 11:41:46;;;;;;;6.50;4.50;;;26.40;99.90;;;;;;5030601;28;20052;-67
2021/07/04 11:44:19;;;;;;;5.70;3.90;;;26.10;99.90;;;;;;5029849;28;20049;-67
2021/07/04 11:46:49;;;;;;;6.78;4.07;;;26.00;99.90;;;;;;5031437;28;20038;-67
2021/07/04 11:49:26;;;;;;;7.50;4.20;;;25.70;99.90;;;;;;5030085;28;20045;-68
2021/07/04 11:51:57;;;;;;;6.90;4.70;;;25.40;99.90;;;;;;5043809;28;20128;-68
2021/07/04 11:54:30;;;;;;;5.78;3.97;;;25.40;99.90;;;;;;5042414;28;20082;-68
2021/07/04 11:59:56;;;;;;;5.88;3.03;;;25.30;99.90;;;;;;5042385;28;20753;-68
2021/07/04 12:02:25;;;;;;;5.05;3.33;;;25.30;99.90;;;;;;5048715;28;20037;-68
2021/07/04 12:04:52;;;;;;;7.68;4.03;;;25.40;99.90;;;;;;5047524;28;20048;-68
2021/07/04 12:07:25;;;;;;;5.47;3.85;;;25.50;99.90;;;;;;5049033;28;20071;-68
2021/07/04 12:09:54;;;;;;;6.53;3.40;;;25.60;99.90;;;;;;5050503;28;20069;-68
2021/07/04 12:12:27;;;;;;;5.82;3.72;;;25.90;99.90;;;;;;5042792;28;20072;-68
2021/07/04 12:15:02;;;;;;;5.07;3.00;;;26.30;99.90;;;;;;5031513;28;20129;-68
2021/07/04 12:17:37;;;;;;;4.03;1.90;;;26.60;99.90;;;;;;5048357;28;20078;-68
2021/07/04 12:20:23;;;;;;;4.97;2.30;;;27.00;99.90;;;;;;5049217;28;20407;-68
2021/07/04 12:22:55;;;;;;;4.53;2.13;;;27.50;99.90;;;;;;5048509;28;20452;-68
2021/07/04 12:25:26;;;;;;;3.58;2.10;;;27.80;99.90;;;;;;5049345;28;20059;-68
2021/07/04 12:27:55;;;;;;;3.15;1.65;;;28.10;99.90;;;;;;5047833;28;20507;-68
2021/07/04 12:30:32;;;;;;;4.07;1.80;;;28.40;99.90;;;;;;5044492;28;20511;-68
2021/07/04 12:33:17;;;;;;;3.25;2.03;;;28.70;99.90;;;;;;5048900;28;20041;-68
2021/07/04 12:35:55;;;;;;;3.80;2.30;;;29.50;99.90;;;;;;5047273;28;20053;-68
2021/07/04 12:38:28;;;;;;;3.67;2.40;;;30.60;99.90;;;;;;5042213;28;20530;-68
2021/07/04 12:41:09;;;;;;;4.82;2.42;;;31.40;99.90;;;;;;5041677;28;20124;-68
2021/07/04 12:43:48;;;;;;;3.90;2.47;;;31.70;99.90;;;;;;5045950;28;20539;-68
2021/07/04 12:46:22;;;;;;;5.00;2.50;;;31.90;99.90;;;;;;5050584;28;20119;-68
2021/07/04 12:48:53;;;;;;;5.18;2.47;;;31.60;99.90;;;;;;5049898;28;20061;-68
2021/07/04 12:51:38;;;;;;;5.38;3.35;;;31.80;99.90;;;;;;5049277;28;20051;-68
2021/07/04 12:54:19;;;;;;;4.85;2.90;;;31.70;99.90;;;;;;5031105;28;20057;-68
2021/07/04 12:56:51;;;;;;;4.60;2.80;;;31.70;99.90;;;;;;5048372;28;20041;-66
2021/07/04 12:59:32;;;;;;;4.35;2.72;;;32.10;99.90;;;;;;5041319;28;20879;-66
2021/07/04 13:02:02;;;;;;;4.07;2.70;;;32.50;99.90;;;;;;5049070;28;20049;-66
2021/07/04 13:04:30;;;;;;;4.77;2.83;;;32.80;99.90;;;;;;5055246;28;20692;-66